createdAt,value
2023-03-15T00:01:46.748Z,100250.59
2023-03-15T00:04:14.548Z,100260.78
2023-03-15T00:06:41.109Z,100258.78
2023-03-15T00:09:07.822Z,100260.78
2023-03-15T00:11:34.397Z,100273.16
2023-03-15T00:14:02.608Z,100280.53
2023-03-15T00:16:29.477Z,100281.72
2023-03-15T00:18:56.441Z,100280.72
2023-03-15T00:21:23.490Z,100290.34
2023-03-15T00:23:50.925Z,100291.72
2023-03-15T00:26:17.983Z,100295.00
2023-03-15T00:28:44.888Z,100299.22
2023-03-15T00:31:23.621Z,100304.19
2023-03-15T00:33:53.859Z,100302.56
2023-03-15T00:36:24.751Z,100294.91
2023-03-15T00:38:53.519Z,100294.63
2023-03-15T00:41:21.851Z,100299.31
2023-03-15T00:43:49.216Z,100299.84
2023-03-15T00:46:16.622Z,100309.81
2023-03-15T00:48:43.180Z,100313.22
2023-03-15T00:51:15.719Z,100326.34
2023-03-15T00:53:44.503Z,100325.88
2023-03-15T00:56:14.277Z,100327.06
2023-03-15T00:58:41.492Z,100340.09
2023-03-15T01:01:14.436Z,100339.44
2023-03-15T01:03:41.909Z,100341.81
2023-03-15T01:06:17.051Z,100348.47
2023-03-15T01:08:44.600Z,100350.44
2023-03-15T01:11:14.508Z,100353.69
2023-03-15T01:13:41.133Z,100361.88
2023-03-15T01:16:09.811Z,100358.44
2023-03-15T01:18:37.860Z,100365.97
2023-03-15T01:21:08.945Z,100361.56
2023-03-15T01:23:35.494Z,100364.69
2023-03-15T01:26:07.477Z,100358.69
2023-03-15T01:28:34.361Z,100367.31
2023-03-15T01:31:00.980Z,100371.25
2023-03-15T01:33:28.248Z,100382.53
2023-03-15T01:36:03.203Z,100385.66
2023-03-15T01:38:30.491Z,100389.41
2023-03-15T01:40:57.520Z,100398.41
2023-03-15T01:43:26.750Z,100402.81
2023-03-15T01:46:02.215Z,100404.13
2023-03-15T01:48:45.389Z,100415.53
2023-03-15T01:51:16.563Z,100423.34
2023-03-15T01:53:48.645Z,100421.25
2023-03-15T01:56:15.823Z,100416.38
2023-03-15T01:58:44.918Z,100416.22
2023-03-15T02:01:11.604Z,100411.53
2023-03-15T02:03:46.667Z,100398.50
2023-03-15T02:06:21.123Z,100403.88
2023-03-15T02:08:55.033Z,100397.66
2023-03-15T02:11:24.318Z,100404.88
2023-03-15T02:13:52.720Z,100406.47
2023-03-15T02:16:20.897Z,100401.44
2023-03-15T02:18:48.165Z,100399.84
2023-03-15T02:21:37.883Z,100402.44
2023-03-15T02:24:23.153Z,100406.38
2023-03-15T02:26:58.823Z,100412.53
2023-03-15T02:29:28.675Z,100408.84
2023-03-15T02:31:55.938Z,100407.56
2023-03-15T02:34:25.441Z,100397.94
2023-03-15T02:36:54.124Z,100402.84
2023-03-15T02:39:22.175Z,100406.78
2023-03-15T02:41:55.426Z,100400.91
2023-03-15T02:44:34.017Z,100396.41
2023-03-15T02:47:10.152Z,100407.63
2023-03-15T02:49:40.972Z,100400.16
2023-03-15T02:52:07.843Z,100402.78
2023-03-15T02:54:34.490Z,100398.69
2023-03-15T02:57:02.336Z,100397.88
2023-03-15T02:59:28.932Z,100399.84
2023-03-15T03:01:55.492Z,100409.31
2023-03-15T03:04:22.105Z,100418.09
2023-03-15T03:06:48.584Z,100421.16
2023-03-15T03:09:15.185Z,100416.66
2023-03-15T03:11:41.686Z,100424.63
2023-03-15T03:14:08.244Z,100425.91
2023-03-15T03:16:34.817Z,100427.88
2023-03-15T03:19:01.579Z,100428.06
2023-03-15T03:21:28.158Z,100432.59
2023-03-15T03:23:54.802Z,100432.59
2023-03-15T03:26:21.388Z,100440.59
2023-03-15T03:28:48.735Z,100441.72
2023-03-15T03:31:21.114Z,100435.06
2023-03-15T03:33:47.765Z,100429.38
2023-03-15T03:36:14.436Z,100425.34
2023-03-15T03:38:42.054Z,100425.47
2023-03-15T03:41:12.601Z,100432.16
2023-03-15T03:43:39.984Z,100429.38
2023-03-15T03:46:06.975Z,100425.97
2023-03-15T03:48:34.359Z,100427.59
2023-03-15T03:51:00.964Z,100432.81
2023-03-15T03:53:27.501Z,100432.16
2023-03-15T03:55:54.584Z,100430.22
2023-03-15T03:58:22.167Z,100428.75
2023-03-15T04:00:49.120Z,100421.13
2023-03-15T04:03:16.233Z,100425.16
2023-03-15T04:05:42.760Z,100427.28
2023-03-15T04:08:09.301Z,100433.94
2023-03-15T04:10:36.026Z,100428.25
2023-03-15T04:13:03.221Z,100425.97
2023-03-15T04:15:29.751Z,100432.00
2023-03-15T04:17:56.516Z,100432.00
2023-03-15T04:20:24.058Z,100434.78
2023-03-15T04:22:50.614Z,100434.13
2023-03-15T04:25:18.031Z,100434.59
2023-03-15T04:27:44.881Z,100443.91
2023-03-15T04:30:12.237Z,100438.69
2023-03-15T04:32:38.884Z,100443.91
2023-03-15T04:35:05.760Z,100428.28
2023-03-15T04:37:32.332Z,100431.06
2023-03-15T04:39:58.830Z,100426.19
2023-03-15T04:42:26.192Z,100424.56
2023-03-15T04:44:53.879Z,100418.53
2023-03-15T04:47:22.734Z,100417.09
2023-03-15T04:49:49.297Z,100420.34
2023-03-15T04:52:15.874Z,100417.09
2023-03-15T04:54:42.401Z,100423.25
2023-03-15T04:57:08.937Z,100413.03
2023-03-15T04:59:35.448Z,100411.75
2023-03-15T05:02:03.876Z,100426.72
2023-03-15T05:04:30.682Z,100417.13
2023-03-15T05:06:57.224Z,100425.56
2023-03-15T05:09:23.945Z,100422.47
2023-03-15T05:11:50.946Z,100417.59
2023-03-15T05:14:17.535Z,100414.53
2023-03-15T05:16:44.057Z,100421.66
2023-03-15T05:19:11.371Z,100428.00
2023-03-15T05:21:37.957Z,100427.50
2023-03-15T05:24:04.629Z,100428.34
2023-03-15T05:26:31.167Z,100440.50
2023-03-15T05:29:00.099Z,100434.16
2023-03-15T05:31:26.700Z,100434.97
2023-03-15T05:33:54.497Z,100435.28
2023-03-15T05:36:21.703Z,100433.84
2023-03-15T05:38:48.226Z,100431.88
2023-03-15T05:41:18.215Z,100433.03
2023-03-15T05:43:45.284Z,100436.28
2023-03-15T05:46:11.844Z,100448.63
2023-03-15T05:48:38.657Z,100453.81
2023-03-15T05:51:05.372Z,100455.28
2023-03-15T05:53:31.985Z,100455.94
2023-03-15T05:55:58.488Z,100457.88
2023-03-15T05:58:25.076Z,100465.34
2023-03-15T06:00:51.572Z,100476.69
2023-03-15T06:03:18.332Z,100474.25
2023-03-15T06:05:44.860Z,100480.59
2023-03-15T06:08:11.344Z,100489.50
2023-03-15T06:10:37.900Z,100490.63
2023-03-15T06:13:04.649Z,100496.19
2023-03-15T06:15:31.178Z,100500.38
2023-03-15T06:17:57.656Z,100496.81
2023-03-15T06:20:24.191Z,100496.00
2023-03-15T06:22:50.668Z,100496.97
2023-03-15T06:25:17.173Z,100486.28
2023-03-15T06:27:43.800Z,100492.94
2023-03-15T06:30:10.969Z,100483.03
2023-03-15T06:32:37.501Z,100478.16
2023-03-15T06:35:05.349Z,100481.72
2023-03-15T06:37:35.403Z,100486.59
2023-03-15T06:40:07.987Z,100485.31
2023-03-15T06:42:35.493Z,100480.25
2023-03-15T06:45:03.564Z,100490.34
2023-03-15T06:47:30.171Z,100486.94
2023-03-15T06:49:57.009Z,100483.53
2023-03-15T06:52:24.223Z,100487.59
2023-03-15T06:54:50.773Z,100489.84
2023-03-15T06:57:17.423Z,100491.16
2023-03-15T06:59:43.908Z,100489.72
2023-03-15T07:02:15.741Z,100490.72
2023-03-15T07:04:42.402Z,100492.97
2023-03-15T07:07:08.973Z,100491.53
2023-03-15T07:09:35.483Z,100494.63
2023-03-15T07:12:02.236Z,100494.13
2023-03-15T07:14:28.735Z,100492.81
2023-03-15T07:16:55.248Z,100495.09
2023-03-15T07:19:21.882Z,100484.22
2023-03-15T07:21:48.393Z,100489.91
2023-03-15T07:24:15.348Z,100488.44
2023-03-15T07:26:41.872Z,100492.31
2023-03-15T07:29:08.358Z,100488.41
2023-03-15T07:31:34.919Z,100481.09
2023-03-15T07:34:01.441Z,100484.19
2023-03-15T07:36:27.979Z,100481.91
2023-03-15T07:38:54.531Z,100484.00
2023-03-15T07:41:21.847Z,100473.13
2023-03-15T07:43:48.410Z,100481.25
2023-03-15T07:46:14.969Z,100472.94
2023-03-15T07:48:41.749Z,100474.88
2023-03-15T07:51:08.258Z,100477.78
2023-03-15T07:53:34.834Z,100473.88
2023-03-15T07:56:01.401Z,100466.53
2023-03-15T07:58:28.205Z,100476.28
2023-03-15T08:00:56.404Z,100473.34
2023-03-15T08:03:24.372Z,100461.59
2023-03-15T08:05:51.232Z,100474.13
2023-03-15T08:08:17.880Z,100466.78
2023-03-15T08:10:45.926Z,100466.13
2023-03-15T08:13:13.689Z,100463.81
2023-03-15T08:15:41.051Z,100465.75
2023-03-15T08:18:07.645Z,100467.66
2023-03-15T08:20:34.180Z,100456.72
2023-03-15T08:23:01.805Z,100469.28
2023-03-15T08:25:29.316Z,100475.59
2023-03-15T08:27:56.230Z,100484.50
2023-03-15T08:30:24.043Z,100483.81
2023-03-15T08:32:52.606Z,100485.91
2023-03-15T08:35:21.680Z,100487.84
2023-03-15T08:37:48.572Z,100492.53
2023-03-15T08:40:19.456Z,100499.66
2023-03-15T08:42:46.407Z,100493.09
2023-03-15T08:45:13.113Z,100492.44
2023-03-15T08:47:39.643Z,100489.78
2023-03-15T08:50:11.607Z,100493.31
2023-03-15T08:52:38.627Z,100493.06
2023-03-15T08:55:05.883Z,100485.84
2023-03-15T08:57:33.243Z,100490.78
2023-03-15T09:00:01.628Z,100488.91
2023-03-15T09:02:29.054Z,100481.47
2023-03-15T09:04:55.660Z,100482.25
2023-03-15T09:07:22.157Z,100487.00
2023-03-15T09:09:48.776Z,100480.75
2023-03-15T09:12:16.963Z,100485.69
2023-03-15T09:14:44.285Z,100478.56
2023-03-15T09:17:11.153Z,100484.53
2023-03-15T09:19:38.211Z,100486.06
2023-03-15T09:22:16.325Z,100482.69
2023-03-15T09:24:43.581Z,100501.53
2023-03-15T09:27:11.843Z,100492.00
2023-03-15T09:29:38.416Z,100494.50
2023-03-15T09:32:05.186Z,100497.00
2023-03-15T09:34:39.858Z,100490.88
2023-03-15T09:37:08.717Z,100484.53
2023-03-15T09:39:35.233Z,100487.22
2023-03-15T09:42:06.500Z,100477.66
2023-03-15T09:44:44.679Z,100479.34
2023-03-15T09:47:28.375Z,100479.03
2023-03-15T09:50:03.228Z,100475.28
2023-03-15T09:52:48.262Z,100464.69
2023-03-15T09:55:23.750Z,100464.38
2023-03-15T09:58:10.304Z,100467.66
2023-03-15T10:00:43.760Z,100475.38
2023-03-15T10:03:21.518Z,100470.81
2023-03-15T10:05:56.608Z,100472.31
2023-03-15T10:08:24.975Z,100479.84
2023-03-15T10:11:12.648Z,100476.91
2023-03-15T10:13:57.508Z,100476.53
2023-03-15T10:16:36.050Z,100469.16
2023-03-15T10:19:15.480Z,100467.19
2023-03-15T10:22:15.299Z,100463.22
2023-03-15T10:25:17.835Z,100467.31
2023-03-15T10:28:11.027Z,100465.94
2023-03-15T10:30:39.925Z,100473.66
2023-03-15T10:33:39.307Z,100470.84
2023-03-15T10:36:33.977Z,100452.91
2023-03-15T10:39:00.615Z,100459.81
2023-03-15T10:41:30.422Z,100452.75
2023-03-15T10:44:01.982Z,100445.50
2023-03-15T10:46:29.250Z,100448.75
2023-03-15T10:49:06.269Z,100456.44
2023-03-15T10:51:39.274Z,100450.03
2023-03-15T10:54:17.828Z,100441.94
2023-03-15T10:56:46.904Z,100448.44
2023-03-15T10:59:22.294Z,100453.47
2023-03-15T11:01:52.357Z,100455.69
2023-03-15T11:04:27.392Z,100443.16
2023-03-15T11:06:53.818Z,100444.59
2023-03-15T11:09:23.361Z,100436.50
2023-03-15T11:12:01.116Z,100442.13
2023-03-15T11:14:35.543Z,100436.47
2023-03-15T11:17:05.436Z,100438.88
2023-03-15T11:19:34.423Z,100433.38
2023-03-15T11:22:02.244Z,100426.06
2023-03-15T11:24:31.377Z,100418.97
2023-03-15T11:27:03.666Z,100417.19
2023-03-15T11:29:33.800Z,100417.13
2023-03-15T11:32:03.831Z,100415.28
2023-03-15T11:34:33.349Z,100413.44
2023-03-15T11:37:08.394Z,100414.22
2023-03-15T11:40:08.859Z,100411.34
2023-03-15T11:42:49.607Z,100402.97
2023-03-15T11:45:39.662Z,100401.69
2023-03-15T11:48:17.072Z,100395.38
2023-03-15T11:50:45.449Z,100390.88
2023-03-15T11:53:17.435Z,100404.59
2023-03-15T11:55:49.552Z,100395.84
2023-03-15T11:58:35.942Z,100378.97
2023-03-15T12:01:05.311Z,100385.00
2023-03-15T12:03:36.805Z,100379.47
2023-03-15T12:06:05.753Z,100373.31
2023-03-15T12:08:50.730Z,100366.16
2023-03-15T12:11:20.339Z,100369.56
2023-03-15T12:13:59.280Z,100358.72
2023-03-15T12:16:28.050Z,100359.69
2023-03-15T12:18:58.613Z,100352.75
2023-03-15T12:21:56.977Z,100356.94
2023-03-15T12:24:25.840Z,100358.09
2023-03-15T12:27:17.003Z,100362.84
2023-03-15T12:29:48.696Z,100358.75
2023-03-15T12:32:17.510Z,100352.00
2023-03-15T12:34:47.006Z,100344.03
2023-03-15T12:37:31.640Z,100352.88
2023-03-15T12:40:16.792Z,100334.56
2023-03-15T12:42:43.272Z,100342.84
2023-03-15T12:45:16.063Z,100337.09
2023-03-15T12:47:46.626Z,100329.56
2023-03-15T12:50:44.320Z,100328.88
2023-03-15T12:53:40.013Z,100322.34
2023-03-15T12:56:18.626Z,100317.44
2023-03-15T12:58:54.086Z,100312.53
2023-03-15T13:01:25.837Z,100310.44
2023-03-15T13:03:58.261Z,100311.03
2023-03-15T13:06:52.632Z,100321.16
2023-03-15T13:09:38.412Z,100315.41
2023-03-15T13:12:08.625Z,100302.22
2023-03-15T13:14:56.201Z,100295.69
2023-03-15T13:17:48.026Z,100288.56
2023-03-15T13:20:23.645Z,100287.31
2023-03-15T13:22:56.197Z,100287.09
2023-03-15T13:25:34.307Z,100286.88
2023-03-15T13:28:19.250Z,100288.25
2023-03-15T13:30:54.267Z,100290.47
2023-03-15T13:33:25.153Z,100288.44
2023-03-15T13:35:58.130Z,100283.72
2023-03-15T13:38:38.660Z,100280.63
2023-03-15T13:41:15.950Z,100277.75
2023-03-15T13:43:43.184Z,100278.09
2023-03-15T13:46:10.275Z,100269.72
2023-03-15T13:48:40.607Z,100271.31
2023-03-15T13:51:35.908Z,100263.19
2023-03-15T13:54:06.865Z,100265.34
2023-03-15T13:56:48.759Z,100257.22
2023-03-15T13:59:17.886Z,100259.38
2023-03-15T14:01:44.806Z,100251.00
2023-03-15T14:04:17.940Z,100257.09
2023-03-15T14:06:48.231Z,100238.41
2023-03-15T14:09:26.012Z,100234.72
2023-03-15T14:12:07.296Z,100244.81
2023-03-15T14:14:38.778Z,100237.09
2023-03-15T14:17:24.404Z,100222.09
2023-03-15T14:19:56.801Z,100227.38
2023-03-15T14:22:23.516Z,100221.84
2023-03-15T14:24:52.711Z,100225.28
2023-03-15T14:27:26.650Z,100223.69
2023-03-15T14:30:02.128Z,100212.31
2023-03-15T14:32:33.828Z,100220.81
2023-03-15T14:35:04.920Z,100213.94
2023-03-15T14:37:31.508Z,100206.78
2023-03-15T14:40:30.648Z,100212.88
2023-03-15T14:42:57.175Z,100218.97
2023-03-15T14:45:23.929Z,100218.75
2023-03-15T14:47:58.405Z,100218.97
2023-03-15T14:50:28.604Z,100221.59
2023-03-15T14:52:57.546Z,100221.59
2023-03-15T14:55:29.436Z,100218.97
2023-03-15T14:57:55.988Z,100212.88
2023-03-15T15:00:22.744Z,100216.31
2023-03-15T15:02:52.278Z,100215.53
2023-03-15T15:05:23.640Z,100209.44
2023-03-15T15:07:54.781Z,100205.75
2023-03-15T15:10:25.851Z,100206.78
2023-03-15T15:13:04.948Z,100202.56
2023-03-15T15:15:40.778Z,100198.88
2023-03-15T15:18:14.870Z,100200.97
2023-03-15T15:20:42.551Z,100188.53
2023-03-15T15:23:12.473Z,100195.66
2023-03-15T15:25:38.973Z,100199.91
2023-03-15T15:28:05.667Z,100189.25
2023-03-15T15:30:32.243Z,100183.97
2023-03-15T15:32:58.816Z,100190.03
2023-03-15T15:35:26.032Z,100185.78
2023-03-15T15:37:52.983Z,100179.94
2023-03-15T15:40:25.513Z,100180.13
2023-03-15T15:42:52.034Z,100181.19
2023-03-15T15:45:19.063Z,100177.38
2023-03-15T15:47:45.919Z,100176.59
2023-03-15T15:50:17.640Z,100178.69
2023-03-15T15:52:47.911Z,100175.19
2023-03-15T15:55:21.180Z,100169.59
2023-03-15T15:57:50.060Z,100168.22
2023-03-15T16:00:27.845Z,100164.97
2023-03-15T16:02:56.495Z,100163.38
2023-03-15T16:05:26.572Z,100158.56
2023-03-15T16:07:55.069Z,100151.13
2023-03-15T16:10:25.659Z,100145.25
2023-03-15T16:12:54.896Z,100149.34
2023-03-15T16:15:21.672Z,100149.22
2023-03-15T16:17:48.442Z,100146.25
2023-03-15T16:20:16.756Z,100147.72
2023-03-15T16:22:47.899Z,100128.31
2023-03-15T16:25:20.098Z,100129.59
2023-03-15T16:27:46.674Z,100138.66
2023-03-15T16:30:34.640Z,100140.34
2023-03-15T16:33:01.576Z,100130.47
2023-03-15T16:35:34.450Z,100134.59
2023-03-15T16:38:01.923Z,100131.25
2023-03-15T16:40:35.307Z,100126.66
2023-03-15T16:43:01.873Z,100120.03
2023-03-15T16:45:28.748Z,100119.06
2023-03-15T16:47:56.456Z,100104.72
2023-03-15T16:50:23.520Z,100107.59
2023-03-15T16:52:54.015Z,100111.72
2023-03-15T16:55:29.358Z,100111.72
2023-03-15T16:57:56.885Z,100104.03
2023-03-15T17:00:23.800Z,100105.84
2023-03-15T17:02:54.385Z,100099.44
2023-03-15T17:05:21.683Z,100099.66
2023-03-15T17:07:49.908Z,100097.72
2023-03-15T17:10:30.637Z,100092.88
2023-03-15T17:13:01.126Z,100082.34
2023-03-15T17:15:29.778Z,100086.81
2023-03-15T17:17:57.732Z,100088.06
2023-03-15T17:20:27.319Z,100085.28
2023-03-15T17:23:04.481Z,100083.22
2023-03-15T17:25:31.868Z,100070.28
2023-03-15T17:27:58.549Z,100073.16
2023-03-15T17:30:27.785Z,100067.28
2023-03-15T17:32:54.458Z,100057.78
2023-03-15T17:35:24.298Z,100069.31
2023-03-15T17:37:51.572Z,100062.91
2023-03-15T17:40:22.859Z,100058.31
2023-03-15T17:42:51.395Z,100067.00
2023-03-15T17:45:33.166Z,100060.72
2023-03-15T17:48:01.232Z,100062.22
2023-03-15T17:50:30.665Z,100055.31
2023-03-15T17:53:18.369Z,100054.75
2023-03-15T17:55:46.601Z,100058.97
2023-03-15T17:58:24.656Z,100052.31
2023-03-15T18:00:54.518Z,100048.31
2023-03-15T18:03:22.375Z,100042.25
2023-03-15T18:05:49.446Z,100045.09
2023-03-15T18:08:18.804Z,100038.91
2023-03-15T18:10:46.599Z,100043.13
2023-03-15T18:13:17.315Z,100042.34
2023-03-15T18:15:45.636Z,100038.31
2023-03-15T18:18:12.173Z,100037.50
2023-03-15T18:20:38.701Z,100035.91
2023-03-15T18:23:05.335Z,100030.28
2023-03-15T18:25:34.146Z,100029.47
2023-03-15T18:28:01.096Z,100028.06
2023-03-15T18:30:30.680Z,100028.88
2023-03-15T18:32:57.851Z,100035.19
2023-03-15T18:35:30.445Z,100026.72
2023-03-15T18:37:57.787Z,100022.25
2023-03-15T18:40:26.746Z,100018.22
2023-03-15T18:42:54.975Z,100009.28
2023-03-15T18:45:24.201Z,100007.69
2023-03-15T18:47:51.222Z,100005.28
2023-03-15T18:50:19.122Z,99997.59
2023-03-15T18:52:45.928Z,100001.84
2023-03-15T18:55:15.131Z,99984.41
2023-03-15T18:57:41.699Z,99987.28
2023-03-15T19:00:13.400Z,99981.22
2023-03-15T19:02:42.084Z,99970.69
2023-03-15T19:05:09.528Z,99961.19
2023-03-15T19:07:36.116Z,99959.78
2023-03-15T19:10:03.128Z,99966.88
2023-03-15T19:12:29.654Z,99959.19
2023-03-15T19:14:56.197Z,99959.78
2023-03-15T19:17:23.182Z,99958.19
2023-03-15T19:19:49.683Z,99946.84
2023-03-15T19:22:16.263Z,99948.66
2023-03-15T19:24:42.894Z,99942.59
2023-03-15T19:27:09.825Z,99947.84
2023-03-15T19:29:36.310Z,99934.94
2023-03-15T19:32:04.101Z,99931.50
2023-03-15T19:34:31.825Z,99923.78
2023-03-15T19:36:58.915Z,99927.03
2023-03-15T19:39:25.520Z,99911.47
2023-03-15T19:41:52.002Z,99903.56
2023-03-15T19:44:18.489Z,99900.94
2023-03-15T19:46:45.597Z,99903.56
2023-03-15T19:49:13.781Z,99893.03
2023-03-15T19:51:40.465Z,99895.66
2023-03-15T19:54:07.080Z,99884.28
2023-03-15T19:56:33.579Z,99884.28
2023-03-15T19:59:00.063Z,99873.75
2023-03-15T20:01:26.668Z,99880.06
2023-03-15T20:03:54.392Z,99868.50
2023-03-15T20:06:22.038Z,99870.13
2023-03-15T20:08:48.700Z,99868.50
2023-03-15T20:11:24.846Z,99868.50
2023-03-15T20:13:52.730Z,99865.66
2023-03-15T20:16:21.490Z,99862.22
2023-03-15T20:18:51.064Z,99867.25
2023-03-15T20:21:18.677Z,99858.78
2023-03-15T20:23:45.526Z,99860.38
2023-03-15T20:26:14.470Z,99857.75
2023-03-15T20:28:42.045Z,99856.72
2023-03-15T20:31:11.097Z,99846.19
2023-03-15T20:33:38.221Z,99857.75
2023-03-15T20:36:06.286Z,99863.56
2023-03-15T20:38:34.438Z,99850.66
2023-03-15T20:41:01.220Z,99838.28
2023-03-15T20:43:27.766Z,99835.63
2023-03-15T20:45:55.992Z,99835.63
2023-03-15T20:48:24.760Z,99834.03
2023-03-15T20:50:52.362Z,99819.59
2023-03-15T20:53:19.416Z,99824.06
2023-03-15T20:55:46.000Z,99818.59
2023-03-15T20:58:12.740Z,99829.94
2023-03-15T21:00:41.065Z,99829.94
2023-03-15T21:03:08.027Z,99819.59
2023-03-15T21:05:35.658Z,99830.72
2023-03-15T21:08:05.472Z,99823.84
2023-03-15T21:10:31.972Z,99830.72
2023-03-15T21:12:58.509Z,99820.44
2023-03-15T21:15:25.033Z,99823.38
2023-03-15T21:17:53.005Z,99824.41
2023-03-15T21:20:19.621Z,99812.84
2023-03-15T21:22:46.246Z,99819.75
2023-03-15T21:25:13.382Z,99806.78
2023-03-15T21:27:39.942Z,99804.94
2023-03-15T21:30:08.024Z,99806.78
2023-03-15T21:32:35.870Z,99804.16
2023-03-15T21:35:02.487Z,99798.66
2023-03-15T21:37:29.022Z,99794.19
2023-03-15T21:39:55.682Z,99790.53
2023-03-15T21:42:22.235Z,99786.28
2023-03-15T21:44:48.761Z,99780.00
2023-03-15T21:47:16.924Z,99778.41
2023-03-15T21:49:44.958Z,99769.44
2023-03-15T21:52:12.446Z,99768.41
2023-03-15T21:54:39.017Z,99759.72
2023-03-15T21:57:05.567Z,99759.50
2023-03-15T21:59:32.175Z,99756.88
2023-03-15T22:01:58.760Z,99758.72
2023-03-15T22:04:25.376Z,99747.34
2023-03-15T22:06:52.952Z,99744.50
2023-03-15T22:09:20.372Z,99751.38
2023-03-15T22:11:48.125Z,99739.00
2023-03-15T22:14:14.928Z,99737.16
2023-03-15T22:16:41.464Z,99736.34
2023-03-15T22:19:08.083Z,99728.44
2023-03-15T22:21:34.921Z,99715.88
2023-03-15T22:24:01.542Z,99716.88
2023-03-15T22:26:28.183Z,99707.38
2023-03-15T22:28:54.673Z,99700.06
2023-03-15T22:31:21.329Z,99699.25
2023-03-15T22:33:47.998Z,99693.75
2023-03-15T22:36:17.047Z,99699.81
2023-03-15T22:38:50.267Z,99691.13
2023-03-15T22:41:18.887Z,99692.72
2023-03-15T22:43:45.987Z,99687.44
2023-03-15T22:46:13.022Z,99680.34
2023-03-15T22:48:39.601Z,99671.44
2023-03-15T22:51:09.753Z,99671.44
2023-03-15T22:53:36.364Z,99671.97
2023-03-15T22:56:04.128Z,99666.72
2023-03-15T22:58:30.748Z,99664.06
2023-03-15T23:00:58.082Z,99663.03
2023-03-15T23:03:24.798Z,99647.22
2023-03-15T23:05:51.518Z,99645.38
2023-03-15T23:08:18.163Z,99647.81
2023-03-15T23:10:44.801Z,99643.34
2023-03-15T23:13:11.858Z,99639.66
2023-03-15T23:15:38.724Z,99630.97
2023-03-15T23:18:05.793Z,99621.22
2023-03-15T23:20:33.105Z,99622.84
2023-03-15T23:22:59.647Z,99611.47
2023-03-15T23:25:29.560Z,99608.63
2023-03-15T23:27:57.133Z,99610.22
2023-03-15T23:30:23.838Z,99602.31
2023-03-15T23:32:52.359Z,99600.47
2023-03-15T23:35:18.981Z,99598.44
2023-03-15T23:37:45.590Z,99602.66
2023-03-15T23:40:15.182Z,99596.81
2023-03-15T23:42:43.670Z,99598.19
2023-03-15T23:45:12.396Z,99587.63
2023-03-15T23:47:39.429Z,99583.97
2023-03-15T23:50:06.643Z,99576.84
2023-03-15T23:52:33.195Z,99582.69
2023-03-15T23:54:59.810Z,99568.25
2023-03-15T23:57:26.800Z,99575.34
2023-03-15T23:59:53.644Z,99567.22
